Hlavní strana
METAR-TAF:

METAR-TAF

Letiště :

Damašek, Sýrie

zeměpisná šířka: 33-25N, zeměpisná délka: 036-31E, výška: 608 m

Aktuální stav počasí

Zpráva byla vytvořena před 28 minutami, v 00:00 UTC
Jihozápadní vítr 10 kt
Teplota 7°C
Vlhkost vzduchu 87%
Tlak 1015 hPa
Viditelnost 10 km a více
Skoro jasno ve výšce 3000 ft
Polojasno ve výšce 10000 ft

METAR: OSDI 200000Z 23010KT 9999 FEW030 SCT100 07/05 Q1015

Čas: 03:28 (00:28 UTC)

Předpověď počasí

Předpověď platná od 20 v 00 UTC do 21 v 06 UTC
Jihozápadní vítr 15 kt
Viditelnost 10 km a více
Polojasno ve výšce 3000 ft
Oblačno až skoro zataženo ve výšce 10000 ft
Dočasný
od 20 v 00 UTC do 21 v 06 UTC
Jihozápadní vítr 15 kt s nárazy do 25 kt
Viditelnost: 6000 m
Skoro jasno ve výšce 2500 ft
Oblačno až skoro zataženo ve výšce 3000 ft
Zataženo ve výšce 10000 ft
dešťové přeháňky

TAF: OSDI 2000/2106 22015KT 9999 SCT030 BKN100 TEMPO 2000/2106 22015G25KT 6000 SHRA FEW025 CB BKN030 OVC100

Stav a předpovědi počasí z více než 4 000 letišť (zprávy METAR a TAF).

Červené a žluté tečky na mapě představují dostupné meteorologické stanice.

Když kurzor umístíte na tečku, zobrazí se název stanice.

Pak kliknutím zobrazíte stav a předpověď počasí.

Chcete-li změnit mapu, kliknutím na zelené tlačítko se znaménkem +mapu přiblížíte, kliknutím na zelené tlačítko se znaménkem – mapu oddálíte a kliknutím na zelené šipky přejdete na sousední mapy.


METAR-TAF: